Satellite view of SBNV
image banner adimage banner ad
image banner ad

SBNV - AERÓDROMO NACIONAL DE AVIAÇÃO

Located in GOIÂNIA, Brazil

ICAO - , IATA -

Data provided by Airmate  

General information

Coordinates: S16°37'32" W49°20'58"
Elevation is 2726 feet MSL.
Magnetic variation is -21° East
View others Airports in Goiás

Operational data

Special qualification required
Current time UTC:
Current local time:
Weather at : SBGO - Santa Genoveva Airport ( 14 km )
METAR: SBGO 061800Z 30012KT 9999 SCT040 29/17 Q1013
TAF: TAF SBGO 061614Z 0618/0718 28007KT 9999 SCT035 FEW045TCU TX30/0618Z TN19/0709Z TEMPO 0618/0702 25008KT 9000 TSRA BKN030 FEW045CB BECMG 0702/0704 VRB02KT 9999 FEW035 PROB30 0708/0711 30003KT 8000 NSC BECMG 0711/0713 30007KT 9999 FEW025 BECMG 0713/0715 SCT035 TEMPO 0716/0718 24007KT 9000 TSRA BKN000 FEW040CB RMK PGO
View NOTAMs / SUP AIP / TFR affecting this airport [VIEW]
Communications frequencies: [VIEW]

Runways:

Airport contact information

Address: GOIÂNIA Brazil

Satellite view of SBNV